PDG64 EGNR-EGNR

Flight info

Callsign PDG64
Flight time 0h 0m
Altitude 2000
Route OAT
Aircraft AS55/L-V/N

Departure

Time 2026-04-28 15:04
Airport Hawarden Airport (EGNR)

Arrival

Time 2026-04-28 15:05
Airport Hawarden Airport (EGNR)
Time Latitude Longitude Altitude Speed Heading
2026-04-28 14:55 53.22926 -3.08044 89 ft 57 kts 316°
2026-04-28 14:55 53.23096 -3.08507 166 ft 53 kts 309°
2026-04-28 14:56 53.23324 -3.09012 119 ft 48 kts 306°
2026-04-28 14:56 53.23339 -3.09094 181 ft 17 kts 119°
2026-04-28 14:56 53.23296 -3.08974 110 ft 23 kts 314°
2026-04-28 14:56 53.23482 -3.09451 134 ft 57 kts 303°
2026-04-28 14:57 53.23665 -3.10052 160 ft 56 kts 306°
2026-04-28 14:57 53.23769 -3.10442 182 ft 57 kts 294°
2026-04-28 14:57 53.23925 -3.10588 19 ft 0 kts 38°
2026-04-28 14:59 53.23930 -3.10587 30 ft 5 kts 301°
2026-04-28 15:00 53.23771 -3.10765 158 ft 34 kts 197°
2026-04-28 15:00 53.23537 -3.10855 209 ft 37 kts 202°
2026-04-28 15:00 53.23309 -3.11082 243 ft 35 kts 245°
2026-04-28 15:00 53.23248 -3.11496 208 ft 36 kts 246°
2026-04-28 15:01 53.23224 -3.11806 194 ft 18 kts 257°
2026-04-28 15:01 53.23223 -3.12056 263 ft 30 kts 274°
2026-04-28 15:01 53.23238 -3.12549 305 ft 54 kts 274°
2026-04-28 15:01 53.23259 -3.13286 352 ft 71 kts 287°
2026-04-28 15:02 53.23368 -3.13924 441 ft 35 kts 349°
2026-04-28 15:02 53.23350 -3.13649 415 ft 61 kts 179°
2026-04-28 15:02 53.23346 -3.14060 331 ft 40 kts 326°
2026-04-28 15:02 53.23571 -3.14365 285 ft 45 kts 307°
2026-04-28 15:03 53.23748 -3.14773 307 ft 39 kts 297°
2026-04-28 15:03 53.23864 -3.15099 339 ft 29 kts 296°
2026-04-28 15:03 53.23990 -3.15505 464 ft 52 kts 311°
2026-04-28 15:03 53.24220 -3.16128 500 ft 74 kts 310°
2026-04-28 15:04 53.24507 -3.16960 547 ft 85 kts 307°
2026-04-28 15:04 53.24534 -3.17778 693 ft 75 kts 186°
2026-04-28 15:04 53.24608 -3.17510 561 ft 77 kts 336°
2026-04-28 15:04 53.24768 -3.18346 550 ft 67 kts 289°
2026-04-28 15:05 53.24848 -3.19005 580 ft 45 kts 287°
2026-04-28 15:05 53.24937 -3.19130 702 ft 40 kts 103°
2026-04-28 15:05 53.24815 -3.19324 645 ft 26 kts 211°
2026-04-28 15:05 53.24746 -3.19532 741 ft 39 kts 238°
2026-04-28 15:06 53.24548 -3.20272 890 ft 96 kts 256°
2026-04-28 15:06 53.24345 -3.21417 1096 ft 107 kts 276°
2026-04-28 15:06 53.24672 -3.22553 1149 ft 110 kts 316°
2026-04-28 15:06 53.24197 -3.23255 1144 ft 121 kts 157°
2026-04-28 15:07 53.23830 -3.22167 1253 ft 109 kts 86°
2026-04-28 15:07 53.24249 -3.21079 1123 ft 123 kts 44°
2026-04-28 15:07 53.24937 -3.20171 997 ft 126 kts 41°
2026-04-28 15:07 53.25633 -3.19253 877 ft 126 kts 40°
2026-04-28 15:08 53.26357 -3.18351 654 ft 134 kts 38°
2026-04-28 15:08 53.27125 -3.17411 414 ft 128 kts 50°
2026-04-28 15:08 53.26944 -3.17079 425 ft 58 kts 295°
2026-04-28 15:08 53.27249 -3.17486 142 ft 53 kts 319°
2026-04-28 15:09 53.27470 -3.17865 131 ft 45 kts 317°
2026-04-28 15:09 53.27770 -3.18228 168 ft 60 kts 330°
2026-04-28 15:09 53.27660 -3.18829 285 ft 53 kts 305°
2026-04-28 15:09 53.27707 -3.18765 311 ft 38 kts 153°
2026-04-28 15:10 53.27554 -3.19194 236 ft 27 kts 156°
2026-04-28 15:10 53.27373 -3.19107 294 ft 34 kts 134°
2026-04-28 15:10 53.27194 -3.18724 297 ft 55 kts 122°
2026-04-28 15:10 53.27145 -3.18287 259 ft 42 kts 320°
2026-04-28 15:11 53.27128 -3.18384 263 ft 28 kts 120°
2026-04-28 15:11 53.26972 -3.17836 321 ft 72 kts 128°
2026-04-28 15:11 53.26620 -3.17186 300 ft 99 kts 70°
2026-04-28 15:11 53.27286 -3.17058 348 ft 122 kts 332°
2026-04-28 15:12 53.27912 -3.18121 419 ft 126 kts 319°
2026-04-28 15:12 53.28554 -3.19171 448 ft 131 kts 324°
2026-04-28 15:12 53.29146 -3.19280 148 ft 79 kts 128°
2026-04-28 15:12 53.29031 -3.19649 106 ft 65 kts 298°
2026-04-28 15:13 53.29252 -3.20238 120 ft 51 kts 311°
2026-04-28 15:13 53.29379 -3.20136 216 ft 41 kts 128°
2026-04-28 15:13 53.29284 -3.20359 180 ft 44 kts 344°
2026-04-28 15:13 53.29523 -3.20660 83 ft 48 kts 302°
2026-04-28 15:14 53.29556 -3.20758 57 ft 48 kts 300°
2026-04-28 15:14 53.29690 -3.21154 86 ft 39 kts 303°
2026-04-28 15:15 53.29857 -3.21635 92 ft 51 kts 304°
2026-04-28 15:15 53.29980 -3.21986 72 ft 53 kts 301°
2026-04-28 15:15 53.30202 -3.22670 68 ft 45 kts 303°
2026-04-28 15:15 53.30348 -3.23082 69 ft 36 kts 301°
2026-04-28 15:16 53.30462 -3.23425 77 ft 31 kts 298°
2026-04-28 15:16 53.30609 -3.23709 81 ft 33 kts 323°
2026-04-28 15:16 53.30795 -3.24001 100 ft 42 kts 306°
2026-04-28 15:16 53.30952 -3.24384 89 ft 35 kts 292°
2026-04-28 15:17 53.31027 -3.24739 87 ft 27 kts 286°
2026-04-28 15:17 53.31074 -3.25024 161 ft 25 kts 288°
2026-04-28 15:17 53.31176 -3.25465 284 ft 71 kts 302°
2026-04-28 15:17 53.31312 -3.25816 419 ft 83 kts 314°
2026-04-28 15:18 53.31692 -3.26710 516 ft 109 kts 309°
2026-04-28 15:18 53.32188 -3.27844 523 ft 125 kts 314°
2026-04-28 15:18 53.32724 -3.29017 651 ft 125 kts 308°
2026-04-28 15:18 53.32884 -3.30470 831 ft 131 kts 268°
2026-04-28 15:19 53.32784 -3.32011 963 ft 134 kts 265°
2026-04-28 15:19 53.32610 -3.33555 1096 ft 136 kts 258°
2026-04-28 15:19 53.32361 -3.35122 1160 ft 142 kts 259°
2026-04-28 15:19 53.32099 -3.36762 1142 ft 146 kts 257°
2026-04-28 15:20 53.31979 -3.38479 973 ft 150 kts 280°
2026-04-28 15:20 53.32139 -3.40193 742 ft 155 kts 283°
2026-04-28 15:20 53.32270 -3.41411 585 ft 153 kts 285°
2026-04-28 15:20 53.32523 -3.43134 387 ft 142 kts 305°
2026-04-28 15:21 53.32979 -3.43307 120 ft 53 kts 132°
2026-04-28 15:21 53.32682 -3.43090 97 ft 44 kts 149°
2026-04-28 15:21 53.32394 -3.42889 81 ft 45 kts 122°
2026-04-28 15:21 53.32245 -3.42776 125 ft 47 kts 262°
2026-04-28 15:22 53.32160 -3.43132 113 ft 18 kts 13°
2026-04-28 15:22 53.32377 -3.43022 94 ft 42 kts 39°
2026-04-28 15:22 53.32615 -3.42653 129 ft 48 kts 340°
2026-04-28 15:22 53.32659 -3.43052 92 ft 41 kts 254°
2026-04-28 15:23 53.32567 -3.43568 99 ft 48 kts 252°
2026-04-28 15:23 53.32467 -3.44152 112 ft 57 kts 239°
2026-04-28 15:23 53.32256 -3.44694 113 ft 49 kts 282°
2026-04-28 15:23 53.32251 -3.44593 87 ft 37 kts 122°
2026-04-28 15:24 53.32016 -3.44289 150 ft 48 kts 161°
2026-04-28 15:24 53.31766 -3.44450 140 ft 15 kts 17°
2026-04-28 15:24 53.31778 -3.44166 120 ft 34 kts 59°
2026-04-28 15:24 53.31820 -3.44017 120 ft 40 kts 57°
2026-04-28 15:25 53.32005 -3.43586 121 ft 46 kts 52°
2026-04-28 15:25 53.32023 -3.43537 137 ft 28 kts 156°
2026-04-28 15:25 53.31780 -3.43376 131 ft 46 kts 164°
2026-04-28 15:25 53.31663 -3.43436 206 ft 42 kts 292°
2026-04-28 15:26 53.31606 -3.43406 144 ft 33 kts 51°
2026-04-28 15:26 53.31846 -3.43109 114 ft 42 kts 39°
2026-04-28 15:26 53.32071 -3.42875 102 ft 34 kts 37°
2026-04-28 15:26 53.32082 -3.42627 115 ft 20 kts 91°
2026-04-28 15:27 53.32083 -3.42306 135 ft 38 kts 71°
2026-04-28 15:27 53.32305 -3.41886 120 ft 60 kts 39°
2026-04-28 15:27 53.32257 -3.41762 142 ft 17 kts
2026-04-28 15:27 53.32119 -3.41770 143 ft 45 kts 231°
2026-04-28 15:28 53.31895 -3.41996 116 ft 31 kts 172°
2026-04-28 15:28 53.31669 -3.41936 199 ft 40 kts 152°
2026-04-28 15:28 53.31624 -3.42073 155 ft 23 kts 23°
2026-04-28 15:28 53.31485 -3.41997 174 ft 61 kts 224°
2026-04-28 15:29 53.31527 -3.42614 218 ft 53 kts 262°
2026-04-28 15:29 53.31442 -3.43231 234 ft 51 kts 300°
2026-04-28 15:29 53.31639 -3.43433 93 ft 13 kts
2026-04-28 15:29 53.31650 -3.43428 64 ft 0 kts 351°
2026-04-28 15:40 53.31647 -3.43450 336 ft 18 kts 276°
2026-04-28 15:40 53.31540 -3.43487 701 ft 53 kts 157°
2026-04-28 15:40 53.30901 -3.43103 643 ft 118 kts 150°
2026-04-28 15:40 53.30144 -3.42411 883 ft 125 kts 141°
2026-04-28 15:41 53.29488 -3.41606 1319 ft 116 kts 130°
2026-04-28 15:41 53.28939 -3.40552 1488 ft 120 kts 120°
2026-04-28 15:41 53.28396 -3.39464 1689 ft 122 kts 123°
2026-04-28 15:41 53.27823 -3.38335 1824 ft 126 kts 123°
2026-04-28 15:42 53.27291 -3.37128 1890 ft 132 kts 116°
2026-04-28 15:42 53.26792 -3.35790 1901 ft 137 kts 114°
2026-04-28 15:42 53.26351 -3.34394 1930 ft 138 kts 110°
2026-04-28 15:42 53.25951 -3.32889 1870 ft 138 kts 106°
2026-04-28 15:43 53.25597 -3.31421 1970 ft 134 kts 107°
2026-04-28 15:43 53.25216 -3.29961 1950 ft 139 kts 108°
2026-04-28 15:43 53.24776 -3.28498 1906 ft 144 kts 118°
2026-04-28 15:43 53.24141 -3.27192 1849 ft 145 kts 124°
2026-04-28 15:44 53.23488 -3.25897 1793 ft 145 kts 122°
2026-04-28 15:44 53.22880 -3.24531 1711 ft 145 kts 118°
2026-04-28 15:44 53.22370 -3.23076 1644 ft 143 kts 112°
2026-04-28 15:44 53.21872 -3.21620 1563 ft 143 kts 114°
2026-04-28 15:45 53.21411 -3.20141 1595 ft 137 kts 109°
2026-04-28 15:45 53.21183 -3.18590 1508 ft 138 kts 96°
2026-04-28 15:45 53.21051 -3.16990 1464 ft 138 kts 91°
2026-04-28 15:45 53.21006 -3.15351 1337 ft 142 kts 88°
2026-04-28 15:46 53.20834 -3.13718 1251 ft 145 kts 104°
2026-04-28 15:46 53.20452 -3.12147 1249 ft 141 kts 107°
2026-04-28 15:46 53.20094 -3.10667 1313 ft 139 kts 107°
2026-04-28 15:46 53.19767 -3.09122 1306 ft 139 kts 103°
2026-04-28 15:47 53.19481 -3.07558 1228 ft 142 kts 101°
2026-04-28 15:47 53.19199 -3.05966 1174 ft 143 kts 107°
2026-04-28 15:47 53.18675 -3.04487 994 ft 151 kts 118°
2026-04-28 15:47 53.18115 -3.03001 887 ft 148 kts 117°
2026-04-28 15:48 53.17685 -3.01444 677 ft 148 kts 103°
2026-04-28 15:48 53.17677 -2.99876 389 ft 122 kts 79°
2026-04-28 15:48 53.17886 -2.98652 248 ft 98 kts 73°
2026-04-28 15:48 53.18145 -2.97710 71 ft 78 kts 42°
2026-04-28 15:49 53.18480 -2.97682 57 ft 29 kts 356°
2026-04-28 15:49 53.18572 -2.97584 52 ft 8 kts 60°
2026-04-28 15:49 53.18568 -2.97523 42 ft 2 kts 122°
2026-04-28 15:49 53.18567 -2.97519 36 ft 0 kts 127°
2026-04-28 15:51 53.18561 -2.97525 37 ft 0 kts 191°
2026-04-28 15:51 53.18559 -2.97528 37 ft 0 kts 31°
2026-04-28 15:52 53.18560 -2.97528 36 ft 0 kts